createdAt,value
2022-12-06T00:01:15.341Z,4.87
2022-12-06T00:03:43.832Z,4.87
2022-12-06T00:06:15.981Z,4.88
2022-12-06T00:08:42.549Z,4.87
2022-12-06T00:11:18.529Z,4.85
2022-12-06T00:13:45.566Z,4.86
2022-12-06T00:16:16.886Z,4.84
2022-12-06T00:18:45.375Z,4.85
2022-12-06T00:21:21.963Z,4.83
2022-12-06T00:23:53.752Z,4.82
2022-12-06T00:26:21.314Z,4.84
2022-12-06T00:28:47.898Z,4.82
2022-12-06T00:31:19.082Z,4.82
2022-12-06T00:33:45.796Z,4.83
2022-12-06T00:36:16.701Z,4.84
2022-12-06T00:38:43.640Z,4.80
2022-12-06T00:41:12.682Z,4.79
2022-12-06T00:43:39.482Z,4.79
2022-12-06T00:46:07.681Z,4.80
2022-12-06T00:48:34.992Z,4.80
2022-12-06T00:51:01.563Z,4.82
2022-12-06T00:53:27.999Z,4.83
2022-12-06T00:55:57.222Z,4.82
2022-12-06T00:58:23.988Z,4.80
2022-12-06T01:00:50.392Z,4.80
2022-12-06T01:03:16.931Z,4.80
2022-12-06T01:05:46.273Z,4.79
2022-12-06T01:08:13.743Z,4.78
2022-12-06T01:10:40.754Z,4.80
2022-12-06T01:13:08.319Z,4.82
2022-12-06T01:15:38.085Z,4.82
2022-12-06T01:18:04.911Z,4.83
2022-12-06T01:20:31.266Z,4.81
2022-12-06T01:22:57.710Z,4.82
2022-12-06T01:25:26.061Z,4.83
2022-12-06T01:27:53.066Z,4.81
2022-12-06T01:30:19.427Z,4.83
2022-12-06T01:32:45.802Z,4.82
2022-12-06T01:35:12.129Z,4.83
2022-12-06T01:37:38.490Z,4.81
2022-12-06T01:40:05.636Z,4.81
2022-12-06T01:42:32.008Z,4.82
2022-12-06T01:44:59.358Z,4.82
2022-12-06T01:47:29.560Z,4.81
2022-12-06T01:50:20.338Z,4.80
2022-12-06T01:52:54.976Z,4.78
2022-12-06T01:55:24.795Z,4.75
2022-12-06T01:57:53.789Z,4.76
2022-12-06T02:00:20.262Z,4.76
2022-12-06T02:02:46.634Z,4.74
2022-12-06T02:05:13.526Z,4.71
2022-12-06T02:07:40.669Z,4.71
2022-12-06T02:10:07.827Z,4.68
2022-12-06T02:12:34.188Z,4.64
2022-12-06T02:15:00.616Z,4.62
2022-12-06T02:17:44.798Z,4.61
2022-12-06T02:20:29.254Z,4.58
2022-12-06T02:23:08.881Z,4.56
2022-12-06T02:25:53.601Z,4.50
2022-12-06T02:28:54.125Z,4.45
2022-12-06T02:31:46.493Z,4.42
2022-12-06T02:34:22.882Z,4.43
2022-12-06T02:37:12.622Z,4.43
2022-12-06T02:39:39.044Z,4.42
2022-12-06T02:42:11.730Z,4.40
2022-12-06T02:44:46.126Z,4.39
2022-12-06T02:47:16.096Z,4.38
2022-12-06T02:49:46.568Z,4.39
2022-12-06T02:52:14.046Z,4.38
2022-12-06T02:54:43.917Z,4.37
2022-12-06T02:57:10.238Z,4.39
2022-12-06T02:59:36.567Z,4.42
2022-12-06T03:02:06.539Z,4.40
2022-12-06T03:04:57.193Z,4.39
2022-12-06T03:07:32.366Z,4.42
2022-12-06T03:10:19.346Z,4.41
2022-12-06T03:13:02.892Z,4.43
2022-12-06T03:15:56.427Z,4.41
2022-12-06T03:18:36.340Z,4.42
2022-12-06T03:21:09.203Z,4.41
2022-12-06T03:23:40.361Z,4.43
2022-12-06T03:26:13.242Z,4.43
2022-12-06T03:28:40.511Z,4.41
2022-12-06T03:31:11.349Z,4.42
2022-12-06T03:33:46.205Z,4.42
2022-12-06T03:36:15.023Z,4.43
2022-12-06T03:38:50.191Z,4.41
2022-12-06T03:41:19.227Z,4.39
2022-12-06T03:43:45.832Z,4.38
2022-12-06T03:46:14.661Z,4.37
2022-12-06T03:48:46.732Z,4.36
2022-12-06T03:51:18.458Z,4.34
2022-12-06T03:53:53.759Z,4.36
2022-12-06T03:56:21.769Z,4.35
2022-12-06T03:58:48.165Z,4.35
2022-12-06T04:01:14.793Z,4.35
2022-12-06T04:03:41.333Z,4.36
2022-12-06T04:06:09.587Z,4.36
2022-12-06T04:08:36.507Z,4.36
2022-12-06T04:11:03.655Z,4.35
2022-12-06T04:13:30.144Z,4.34
2022-12-06T04:15:59.061Z,4.34
2022-12-06T04:18:25.916Z,4.35
2022-12-06T04:21:10.812Z,4.34
2022-12-06T04:23:40.117Z,4.33
2022-12-06T04:26:09.017Z,4.31
2022-12-06T04:28:53.787Z,4.32
2022-12-06T04:31:39.274Z,4.30
2022-12-06T04:34:24.345Z,4.29
2022-12-06T04:37:10.143Z,4.30
2022-12-06T04:39:37.066Z,4.32
2022-12-06T04:42:22.382Z,4.32
2022-12-06T04:44:49.009Z,4.30
2022-12-06T04:47:15.826Z,4.30
2022-12-06T04:49:42.266Z,4.30
2022-12-06T04:52:09.474Z,4.30
2022-12-06T04:54:36.224Z,4.29
2022-12-06T04:57:03.399Z,4.29
2022-12-06T04:59:30.082Z,4.28
2022-12-06T05:01:57.187Z,4.26
2022-12-06T05:04:24.107Z,4.26
2022-12-06T05:06:50.549Z,4.26
2022-12-06T05:09:16.959Z,4.26
2022-12-06T05:11:43.327Z,4.26
2022-12-06T05:14:09.712Z,4.26
2022-12-06T05:16:36.176Z,4.24
2022-12-06T05:19:02.625Z,4.25
2022-12-06T05:21:29.199Z,4.26
2022-12-06T05:23:57.277Z,4.25
2022-12-06T05:26:26.262Z,4.25
2022-12-06T05:28:53.879Z,4.26
2022-12-06T05:31:21.075Z,4.28
2022-12-06T05:33:48.451Z,4.25
2022-12-06T05:36:26.325Z,4.25
2022-12-06T05:38:53.135Z,4.24
2022-12-06T05:41:21.108Z,4.24
2022-12-06T05:43:47.824Z,4.23
2022-12-06T05:46:14.686Z,4.23
2022-12-06T05:48:41.094Z,4.22
2022-12-06T05:51:07.510Z,4.20
2022-12-06T05:53:33.887Z,4.20
2022-12-06T05:56:09.042Z,4.21
2022-12-06T05:58:36.007Z,4.19
2022-12-06T06:01:02.514Z,4.19
2022-12-06T06:03:29.001Z,4.17
2022-12-06T06:05:59.138Z,4.14
2022-12-06T06:08:26.445Z,4.12
2022-12-06T06:10:52.955Z,4.11
2022-12-06T06:13:19.532Z,4.10
2022-12-06T06:15:46.841Z,4.09
2022-12-06T06:18:13.214Z,4.07
2022-12-06T06:20:39.637Z,4.06
2022-12-06T06:23:06.083Z,4.05
2022-12-06T06:25:32.451Z,4.02
2022-12-06T06:27:58.855Z,4.03
2022-12-06T06:30:25.298Z,4.05
2022-12-06T06:32:51.688Z,4.05
2022-12-06T06:35:18.227Z,4.05
2022-12-06T06:37:44.666Z,4.05
2022-12-06T06:40:11.320Z,4.04
2022-12-06T06:42:38.178Z,4.04
2022-12-06T06:45:05.206Z,4.04
2022-12-06T06:47:31.651Z,4.04
2022-12-06T06:49:58.103Z,4.05
2022-12-06T06:52:24.804Z,4.07
2022-12-06T06:54:51.271Z,4.07
2022-12-06T06:57:18.467Z,4.05
2022-12-06T06:59:45.624Z,4.03
2022-12-06T07:02:13.543Z,4.04
2022-12-06T07:04:39.992Z,4.01
2022-12-06T07:07:06.698Z,4.01
2022-12-06T07:09:33.600Z,3.97
2022-12-06T07:11:59.999Z,3.96
2022-12-06T07:14:26.557Z,3.90
2022-12-06T07:16:52.979Z,3.83
2022-12-06T07:19:19.336Z,3.76
2022-12-06T07:21:45.711Z,3.68
2022-12-06T07:24:12.505Z,3.61
2022-12-06T07:26:38.813Z,3.52
2022-12-06T07:29:05.320Z,3.44
2022-12-06T07:31:31.801Z,3.37
2022-12-06T07:34:00.895Z,3.28
2022-12-06T07:36:30.509Z,3.23
2022-12-06T07:38:58.456Z,3.19
2022-12-06T07:41:46.978Z,3.15
2022-12-06T07:44:33.814Z,3.10
2022-12-06T07:47:00.171Z,2.98
2022-12-06T07:49:26.584Z,2.91
2022-12-06T07:51:54.965Z,2.86
2022-12-06T07:54:21.850Z,2.80
2022-12-06T07:56:48.260Z,2.73
2022-12-06T07:59:14.735Z,2.72
2022-12-06T08:01:41.302Z,2.69
2022-12-06T08:04:07.890Z,2.65
2022-12-06T08:06:35.244Z,2.63
2022-12-06T08:09:01.863Z,2.59
2022-12-06T08:11:28.793Z,2.55
2022-12-06T08:13:55.395Z,2.51
2022-12-06T08:16:21.886Z,2.48
2022-12-06T08:18:48.359Z,2.43
2022-12-06T08:21:16.454Z,2.41
2022-12-06T08:23:42.949Z,2.36
2022-12-06T08:26:12.906Z,2.37
2022-12-06T08:28:40.005Z,2.44
2022-12-06T08:31:13.200Z,2.51
2022-12-06T08:33:39.607Z,2.66
2022-12-06T08:36:11.931Z,2.83
2022-12-06T08:38:38.810Z,2.93
2022-12-06T08:41:44.691Z,2.99
2022-12-06T08:44:15.359Z,3.05
2022-12-06T08:46:42.249Z,3.05
2022-12-06T08:49:09.720Z,3.05
2022-12-06T08:51:36.625Z,3.00
2022-12-06T08:54:04.451Z,2.95
2022-12-06T08:56:30.923Z,2.91
2022-12-06T08:58:57.803Z,2.89
2022-12-06T09:01:35.817Z,2.90
2022-12-06T09:04:05.373Z,2.91
2022-12-06T09:06:31.844Z,2.92
2022-12-06T09:08:58.498Z,2.96
2022-12-06T09:11:26.209Z,3.00
2022-12-06T09:13:52.706Z,3.05
2022-12-06T09:16:23.716Z,3.12
2022-12-06T09:18:53.733Z,3.19
2022-12-06T09:21:25.639Z,3.27
2022-12-06T09:23:55.795Z,3.33
2022-12-06T09:26:22.918Z,3.38
2022-12-06T09:28:50.644Z,3.49
2022-12-06T09:31:18.726Z,3.62
2022-12-06T09:33:45.510Z,3.72
2022-12-06T09:36:23.181Z,3.87
2022-12-06T09:38:55.668Z,4.03
2022-12-06T09:41:36.920Z,4.25
2022-12-06T09:44:12.776Z,4.50
2022-12-06T09:46:56.418Z,4.80
2022-12-06T09:49:36.399Z,5.10
2022-12-06T09:52:27.536Z,5.22
2022-12-06T09:55:15.006Z,5.17
2022-12-06T09:57:54.692Z,5.17
2022-12-06T10:00:23.515Z,5.18
2022-12-06T10:03:02.185Z,5.20
2022-12-06T10:05:36.701Z,5.25
2022-12-06T10:08:23.369Z,5.29
2022-12-06T10:11:08.338Z,5.39
2022-12-06T10:13:56.236Z,5.56
2022-12-06T10:16:22.583Z,5.61
2022-12-06T10:18:59.637Z,5.64
2022-12-06T10:21:45.219Z,5.66
2022-12-06T10:24:20.594Z,5.65
2022-12-06T10:26:55.500Z,5.67
2022-12-06T10:29:53.809Z,5.67
2022-12-06T10:32:48.238Z,5.66
2022-12-06T10:35:36.300Z,5.84
2022-12-06T10:38:25.441Z,6.14
2022-12-06T10:41:13.625Z,6.20
2022-12-06T10:44:19.850Z,6.18
2022-12-06T10:47:04.798Z,6.24
2022-12-06T10:49:35.637Z,6.42
2022-12-06T10:52:25.199Z,6.55
2022-12-06T10:55:02.631Z,6.76
2022-12-06T10:57:39.194Z,6.78
2022-12-06T11:00:19.683Z,6.77
2022-12-06T11:03:02.255Z,6.74
2022-12-06T11:05:35.291Z,6.70
2022-12-06T11:08:29.334Z,6.69
2022-12-06T11:10:58.330Z,6.64
2022-12-06T11:13:35.156Z,6.57
2022-12-06T11:16:05.670Z,6.52
2022-12-06T11:18:33.666Z,6.52
2022-12-06T11:21:18.011Z,6.45
2022-12-06T11:24:23.207Z,6.41
2022-12-06T11:27:00.877Z,6.39
2022-12-06T11:29:27.584Z,6.41
2022-12-06T11:32:03.185Z,6.43
2022-12-06T11:34:51.158Z,6.48
2022-12-06T11:37:20.235Z,6.51
2022-12-06T11:39:50.076Z,6.45
2022-12-06T11:42:21.639Z,6.49
2022-12-06T11:44:54.794Z,6.55
2022-12-06T11:47:22.763Z,6.56
2022-12-06T11:49:51.585Z,6.62
2022-12-06T11:52:23.681Z,6.65
2022-12-06T11:54:57.078Z,6.67
2022-12-06T11:57:31.866Z,6.69
2022-12-06T12:00:18.009Z,6.68
2022-12-06T12:02:46.750Z,6.75
2022-12-06T12:05:16.339Z,6.81
2022-12-06T12:07:45.739Z,6.86
2022-12-06T12:10:32.142Z,6.89
2022-12-06T12:13:31.624Z,6.89
2022-12-06T12:16:01.310Z,6.89
2022-12-06T12:18:35.458Z,6.84
2022-12-06T12:21:03.636Z,6.82
2022-12-06T12:23:37.313Z,6.80
2022-12-06T12:26:33.082Z,6.81
2022-12-06T12:29:08.539Z,6.91
2022-12-06T12:32:06.402Z,6.94
2022-12-06T12:34:32.885Z,6.93
2022-12-06T12:37:02.606Z,6.96
2022-12-06T12:39:34.478Z,6.95
2022-12-06T12:42:02.249Z,6.88
2022-12-06T12:44:38.654Z,6.89
2022-12-06T12:47:19.957Z,6.88
2022-12-06T12:50:23.906Z,6.87
2022-12-06T12:52:51.586Z,6.92
2022-12-06T12:55:30.676Z,6.92
2022-12-06T12:58:00.002Z,6.90
2022-12-06T13:00:32.354Z,6.92
2022-12-06T13:03:02.582Z,6.92
2022-12-06T13:05:37.565Z,6.89
2022-12-06T13:08:28.845Z,6.94
2022-12-06T13:10:59.322Z,6.93
2022-12-06T13:13:35.651Z,6.94
2022-12-06T13:16:07.399Z,6.95
2022-12-06T13:18:47.278Z,6.93
2022-12-06T13:21:21.757Z,6.89
2022-12-06T13:23:53.642Z,6.94
2022-12-06T13:26:28.253Z,6.94
2022-12-06T13:28:58.191Z,6.98
2022-12-06T13:31:29.936Z,6.95
2022-12-06T13:34:06.414Z,6.99
2022-12-06T13:36:34.677Z,7.01
2022-12-06T13:39:30.035Z,6.99
2022-12-06T13:42:17.551Z,7.02
2022-12-06T13:44:52.792Z,7.04
2022-12-06T13:47:38.871Z,7.05
2022-12-06T13:50:14.475Z,7.02
2022-12-06T13:52:43.939Z,7.01
2022-12-06T13:55:25.748Z,6.96
2022-12-06T13:57:54.957Z,6.84
2022-12-06T14:00:30.470Z,6.82
2022-12-06T14:03:25.424Z,6.76
2022-12-06T14:06:12.223Z,6.74
2022-12-06T14:08:46.922Z,6.69
2022-12-06T14:11:28.369Z,6.61
2022-12-06T14:14:00.863Z,6.56
2022-12-06T14:16:35.840Z,6.51
2022-12-06T14:19:26.202Z,6.45
2022-12-06T14:21:56.436Z,6.46
2022-12-06T14:24:35.326Z,6.49
2022-12-06T14:27:19.076Z,6.55
2022-12-06T14:30:06.614Z,6.56
2022-12-06T14:32:45.284Z,6.58
2022-12-06T14:35:11.584Z,6.62
2022-12-06T14:37:38.636Z,6.60
2022-12-06T14:40:45.271Z,6.58
2022-12-06T14:43:16.584Z,6.57
2022-12-06T14:45:45.085Z,6.54
2022-12-06T14:48:13.049Z,6.51
2022-12-06T14:50:51.011Z,6.47
2022-12-06T14:53:30.850Z,6.43
2022-12-06T14:56:00.424Z,6.39
2022-12-06T14:58:47.026Z,6.38
2022-12-06T15:01:20.647Z,6.34
2022-12-06T15:03:57.231Z,6.34
2022-12-06T15:06:25.621Z,6.31
2022-12-06T15:08:58.061Z,6.28
2022-12-06T15:11:49.196Z,6.25
2022-12-06T15:14:22.323Z,6.21
2022-12-06T15:17:19.146Z,6.11
2022-12-06T15:19:49.541Z,6.08
2022-12-06T15:22:24.391Z,6.05
2022-12-06T15:24:55.152Z,6.03
2022-12-06T15:27:23.258Z,6.03
2022-12-06T15:29:49.844Z,5.96
2022-12-06T15:32:18.577Z,5.96
2022-12-06T15:34:46.469Z,5.97
2022-12-06T15:37:38.251Z,5.95
2022-12-06T15:40:02.161Z,5.96
2022-12-06T15:42:28.756Z,5.96
2022-12-06T15:44:55.373Z,5.93
2022-12-06T15:47:21.804Z,5.91
2022-12-06T15:49:50.928Z,5.88
2022-12-06T15:52:22.901Z,5.85
2022-12-06T15:54:49.267Z,5.87
2022-12-06T15:57:16.005Z,5.87
2022-12-06T15:59:42.386Z,5.86
2022-12-06T16:02:18.102Z,5.85
2022-12-06T16:04:45.521Z,5.81
2022-12-06T16:07:13.247Z,5.77
2022-12-06T16:09:39.637Z,5.74
2022-12-06T16:12:06.326Z,5.70
2022-12-06T16:14:32.686Z,5.66
2022-12-06T16:16:59.068Z,5.64
2022-12-06T16:19:45.411Z,5.59
2022-12-06T16:22:11.756Z,5.62
2022-12-06T16:24:38.136Z,5.60
2022-12-06T16:27:04.487Z,5.62
2022-12-06T16:29:30.851Z,5.65
2022-12-06T16:31:57.254Z,5.62
2022-12-06T16:34:24.914Z,5.60
2022-12-06T16:36:57.329Z,5.57
2022-12-06T16:39:23.791Z,5.56
2022-12-06T16:41:50.206Z,5.53
2022-12-06T16:44:16.561Z,5.50
2022-12-06T16:46:43.052Z,5.49
2022-12-06T16:49:44.575Z,5.44
2022-12-06T16:52:03.945Z,5.37
2022-12-06T16:54:30.308Z,5.30
2022-12-06T16:56:56.712Z,5.26
2022-12-06T16:59:23.033Z,5.21
2022-12-06T17:01:51.445Z,5.18
2022-12-06T17:04:18.475Z,5.14
2022-12-06T17:06:45.312Z,5.12
2022-12-06T17:09:12.113Z,5.08
2022-12-06T17:11:57.947Z,5.06
2022-12-06T17:14:27.945Z,5.06
2022-12-06T17:16:55.189Z,5.04
2022-12-06T17:19:28.036Z,5.07
2022-12-06T17:21:55.114Z,5.06
2022-12-06T17:24:22.643Z,5.09
2022-12-06T17:26:49.225Z,5.11
2022-12-06T17:29:16.250Z,5.12
2022-12-06T17:31:43.348Z,5.09
2022-12-06T17:34:13.006Z,5.07
2022-12-06T17:36:40.202Z,5.07
2022-12-06T17:39:08.365Z,5.11
2022-12-06T17:41:54.382Z,5.13
2022-12-06T17:44:21.146Z,5.10
2022-12-06T17:46:47.656Z,5.07
2022-12-06T17:49:16.269Z,5.03
2022-12-06T17:51:42.688Z,4.99
2022-12-06T17:54:09.632Z,4.94
2022-12-06T17:56:40.098Z,4.88
2022-12-06T17:59:09.083Z,4.81
2022-12-06T18:02:06.035Z,4.76
2022-12-06T18:04:23.226Z,4.73
2022-12-06T18:06:49.699Z,4.71
2022-12-06T18:09:16.128Z,4.71
2022-12-06T18:11:42.982Z,4.69
2022-12-06T18:14:13.387Z,4.66
2022-12-06T18:16:41.700Z,4.60
2022-12-06T18:19:11.461Z,4.54
2022-12-06T18:21:39.690Z,4.50
2022-12-06T18:24:26.814Z,4.48
2022-12-06T18:26:54.450Z,4.43
2022-12-06T18:29:23.144Z,4.41
2022-12-06T18:31:50.465Z,4.36
2022-12-06T18:34:17.613Z,4.30
2022-12-06T18:36:44.056Z,4.28
2022-12-06T18:39:15.271Z,4.25
2022-12-06T18:41:43.000Z,4.24
2022-12-06T18:44:10.775Z,4.23
2022-12-06T18:46:38.891Z,4.23
2022-12-06T18:49:05.763Z,4.23
2022-12-06T18:51:34.178Z,4.24
2022-12-06T18:54:02.292Z,4.24
2022-12-06T18:56:30.194Z,4.28
2022-12-06T18:59:02.155Z,4.27
2022-12-06T19:01:33.002Z,4.31
2022-12-06T19:04:01.013Z,4.32
2022-12-06T19:06:30.983Z,4.29
2022-12-06T19:09:00.188Z,4.29
2022-12-06T19:11:26.694Z,4.30
2022-12-06T19:13:55.469Z,4.34
2022-12-06T19:16:29.384Z,4.36
2022-12-06T19:18:57.956Z,4.36
2022-12-06T19:21:25.165Z,4.38
2022-12-06T19:23:55.989Z,4.42
2022-12-06T19:26:23.110Z,4.42
2022-12-06T19:28:49.727Z,4.42
2022-12-06T19:31:16.719Z,4.45
2022-12-06T19:33:46.336Z,4.48
2022-12-06T19:36:33.081Z,4.46
2022-12-06T19:39:02.980Z,4.44
2022-12-06T19:41:30.008Z,4.44
2022-12-06T19:44:14.983Z,4.44
2022-12-06T19:46:43.605Z,4.47
2022-12-06T19:49:11.402Z,4.47
2022-12-06T19:51:40.342Z,4.47
2022-12-06T19:54:07.585Z,4.46
2022-12-06T19:56:35.236Z,4.45
2022-12-06T19:59:11.107Z,4.43
2022-12-06T20:01:40.149Z,4.43
2022-12-06T20:04:06.930Z,4.41
2022-12-06T20:06:33.424Z,4.39
2022-12-06T20:09:01.373Z,4.41
2022-12-06T20:11:46.699Z,4.39
2022-12-06T20:14:17.124Z,4.35
2022-12-06T20:16:44.411Z,4.33
2022-12-06T20:19:12.130Z,4.28
2022-12-06T20:21:38.527Z,4.23
2022-12-06T20:24:05.109Z,4.20
2022-12-06T20:26:32.654Z,4.18
2022-12-06T20:29:00.108Z,4.15
2022-12-06T20:31:29.605Z,4.13
2022-12-06T20:33:57.511Z,4.14
2022-12-06T20:36:25.572Z,4.17
2022-12-06T20:38:53.309Z,4.23
2022-12-06T20:41:22.554Z,4.25
2022-12-06T20:43:50.999Z,4.32
2022-12-06T20:46:21.161Z,4.33
2022-12-06T20:48:47.542Z,4.33
2022-12-06T20:51:17.320Z,4.33
2022-12-06T20:53:47.301Z,4.34
2022-12-06T20:56:20.084Z,4.35
2022-12-06T20:58:49.252Z,4.37
2022-12-06T21:01:19.350Z,4.38
2022-12-06T21:03:47.318Z,4.39
2022-12-06T21:06:14.533Z,4.42
2022-12-06T21:08:41.405Z,4.42
2022-12-06T21:11:24.241Z,4.45
2022-12-06T21:13:55.563Z,4.47
2022-12-06T21:16:23.595Z,4.47
2022-12-06T21:18:55.178Z,4.45
2022-12-06T21:21:25.057Z,4.43
2022-12-06T21:23:51.491Z,4.41
2022-12-06T21:26:17.966Z,4.40
2022-12-06T21:28:44.482Z,4.39
2022-12-06T21:31:10.954Z,4.37
2022-12-06T21:33:37.576Z,4.32
2022-12-06T21:36:05.896Z,4.26
2022-12-06T21:38:33.271Z,4.21
2022-12-06T21:41:11.300Z,4.16
2022-12-06T21:43:38.093Z,4.11
2022-12-06T21:46:06.900Z,4.10
2022-12-06T21:48:33.949Z,4.07
2022-12-06T21:51:02.478Z,4.08
2022-12-06T21:53:29.027Z,4.08
2022-12-06T21:55:55.514Z,4.09
2022-12-06T21:58:22.157Z,4.12
2022-12-06T22:00:48.576Z,4.10
2022-12-06T22:03:20.945Z,4.05
2022-12-06T22:05:49.211Z,3.98
2022-12-06T22:08:15.749Z,3.93
2022-12-06T22:10:42.530Z,3.87
2022-12-06T22:13:08.939Z,3.82
2022-12-06T22:15:35.619Z,3.79
2022-12-06T22:18:02.084Z,3.76
2022-12-06T22:20:28.542Z,3.73
2022-12-06T22:22:54.936Z,3.68
2022-12-06T22:25:21.363Z,3.66
2022-12-06T22:27:47.746Z,3.62
2022-12-06T22:30:14.374Z,3.58
2022-12-06T22:32:40.730Z,3.50
2022-12-06T22:35:07.594Z,3.45
2022-12-06T22:37:33.997Z,3.36
2022-12-06T22:40:00.587Z,3.32
2022-12-06T22:42:27.195Z,3.32
2022-12-06T22:44:53.573Z,3.31
2022-12-06T22:47:19.987Z,3.29
2022-12-06T22:49:46.636Z,3.27
2022-12-06T22:52:13.039Z,3.25
2022-12-06T22:54:39.368Z,3.24
2022-12-06T22:57:05.733Z,3.19
2022-12-06T22:59:32.099Z,3.12
2022-12-06T23:01:58.510Z,3.10
2022-12-06T23:04:24.896Z,3.06
2022-12-06T23:06:51.282Z,2.98
2022-12-06T23:09:17.789Z,2.95
2022-12-06T23:11:44.348Z,2.94
2022-12-06T23:14:11.363Z,2.91
2022-12-06T23:16:38.870Z,2.88
2022-12-06T23:19:05.282Z,2.84
2022-12-06T23:21:36.046Z,2.81
2022-12-06T23:24:05.711Z,2.80
2022-12-06T23:26:37.803Z,2.75
2022-12-06T23:29:04.945Z,2.73
2022-12-06T23:31:34.305Z,2.69
2022-12-06T23:34:03.160Z,2.65
2022-12-06T23:36:31.781Z,2.63
2022-12-06T23:38:58.562Z,2.67
2022-12-06T23:41:28.354Z,2.71
2022-12-06T23:43:55.983Z,2.72
2022-12-06T23:46:24.905Z,2.76
2022-12-06T23:48:52.259Z,2.75
2022-12-06T23:51:21.676Z,2.74
2022-12-06T23:53:59.332Z,2.78
2022-12-06T23:56:31.562Z,2.78
2022-12-06T23:58:58.466Z,2.78
